Time;durP1;ratioP1;P1;durP2;ratioP2;P2;SDS_P1;SDS_P2;PMS_P1;PMS_P2;Temp;Humidity;BMP_temperature;BMP_pressure;BME280_temperature;BME280_humidity;BME280_pressure;Samples;Min_cycle;Max_cycle;Signal;HPM_P1;HPM_P2
2021/08/08 00:01:02;;;;;;;5.28;3.30;;;614.80;1459.20;;;;;;5093592;28;20345;-76
2021/08/08 00:03:28;;;;;;;7.85;4.13;;;614.90;1459.20;;;;;;5092061;28;20560;-77
2021/08/08 00:05:55;;;;;;;6.93;4.15;;;614.90;1459.20;;;;;;5092275;28;20102;-76
2021/08/08 00:08:25;;;;;;;7.07;4.32;;;614.90;1459.20;;;;;;5093614;28;20109;-75
2021/08/08 00:10:50;;;;;;;9.48;4.30;;;614.90;1459.20;;;;;;5093837;28;20016;-76
2021/08/08 00:13:17;;;;;;;6.05;3.97;;;614.90;1459.20;;;;;;5092220;28;20035;-76
2021/08/08 00:15:43;;;;;;;7.90;4.05;;;614.90;1459.20;;;;;;5093496;28;20052;-76
2021/08/08 00:18:09;;;;;;;6.40;4.20;;;614.90;1459.20;;;;;;5092158;28;20047;-76
2021/08/08 00:20:35;;;;;;;8.32;4.28;;;614.80;1459.20;;;;;;5093439;28;20468;-76
2021/08/08 00:23:01;;;;;;;5.85;3.85;;;614.80;1484.80;;;;;;5091995;28;20039;-76
2021/08/08 00:25:27;;;;;;;6.68;4.07;;;614.80;1484.80;;;;;;5093670;28;20020;-76
2021/08/08 00:27:53;;;;;;;7.57;3.75;;;614.80;1484.80;;;;;;5092111;28;20028;-76
2021/08/08 00:30:19;;;;;;;6.93;4.45;;;614.70;1484.80;;;;;;5092045;28;20052;-76
2021/08/08 00:32:45;;;;;;;7.43;4.50;;;614.70;1484.80;;;;;;5093337;28;20028;-75
2021/08/08 00:35:12;;;;;;;7.03;3.90;;;614.70;1484.80;;;;;;5093280;28;20097;-76
2021/08/08 00:37:42;;;;;;;7.07;4.30;;;614.70;1484.80;;;;;;5093275;28;20107;-75
2021/08/08 00:40:10;;;;;;;7.72;3.72;;;614.70;1484.80;;;;;;5092011;28;20552;-76
2021/08/08 00:42:36;;;;;;;5.68;3.42;;;614.70;1484.80;;;;;;5093074;28;20040;-77
2021/08/08 00:45:02;;;;;;;7.30;3.80;;;614.70;1484.80;;;;;;5092017;28;20024;-75
2021/08/08 00:47:27;;;;;;;8.15;3.58;;;614.50;1484.80;;;;;;5092023;28;20047;-76
2021/08/08 00:49:53;;;;;;;9.35;4.32;;;614.50;1484.80;;;;;;5093993;28;20507;-77
2021/08/08 00:52:19;;;;;;;6.45;3.92;;;614.60;1484.80;;;;;;5095623;28;20357;-77
2021/08/08 00:54:45;;;;;;;5.57;4.03;;;614.60;1484.80;;;;;;5096952;28;20024;-77
2021/08/08 00:57:11;;;;;;;6.00;3.88;;;614.60;1484.80;;;;;;5097197;28;20020;-76
2021/08/08 00:59:38;;;;;;;5.88;3.42;;;614.70;1484.80;;;;;;5097179;28;20020;-76
2021/08/08 01:02:05;;;;;;;8.02;3.80;;;614.50;1484.80;;;;;;5096734;28;20032;-76
2021/08/08 01:04:39;;;;;;;5.90;3.65;;;614.50;1484.80;;;;;;5096783;28;20035;-76
2021/08/08 01:07:25;;;;;;;7.65;4.00;;;614.50;1459.20;;;;;;5095567;28;20055;-76
2021/08/08 01:09:59;;;;;;;5.80;3.80;;;614.70;1484.80;;;;;;5095456;28;20059;-76
2021/08/08 01:12:25;;;;;;;7.60;4.20;;;614.70;1484.80;;;;;;5095684;28;20539;-76
2021/08/08 01:14:52;;;;;;;6.35;3.83;;;614.70;1484.80;;;;;;5096506;28;20024;-76
2021/08/08 01:17:19;;;;;;;9.02;4.38;;;614.70;1484.80;;;;;;5096550;28;20028;-75
2021/08/08 01:20:06;;;;;;;9.48;4.18;;;614.70;1484.80;;;;;;5096432;28;20027;-76
2021/08/08 01:22:34;;;;;;;5.57;4.32;;;614.60;1484.80;;;;;;5096373;28;20027;-74
2021/08/08 01:25:03;;;;;;;5.97;4.03;;;614.60;1484.80;;;;;;5096695;28;20581;-75
2021/08/08 01:27:29;;;;;;;8.68;4.63;;;614.60;1484.80;;;;;;5096637;28;20464;-75
2021/08/08 01:29:55;;;;;;;7.45;3.78;;;614.50;1484.80;;;;;;5094999;28;20073;-77
2021/08/08 01:32:23;;;;;;;7.03;4.30;;;614.50;1510.40;;;;;;5096192;28;20024;-75
2021/08/08 01:34:49;;;;;;;8.43;4.68;;;614.40;1510.40;;;;;;5094974;28;20032;-75
2021/08/08 01:37:20;;;;;;;7.88;4.90;;;614.40;1510.40;;;;;;5094902;28;20499;-74
2021/08/08 01:39:50;;;;;;;8.52;4.80;;;614.40;1510.40;;;;;;5096116;28;20032;-75
2021/08/08 01:42:17;;;;;;;7.15;5.00;;;614.40;1510.40;;;;;;5096282;28;20024;-75
2021/08/08 01:44:48;;;;;;;9.48;5.05;;;614.40;1510.40;;;;;;5096294;28;20028;-76
2021/08/08 01:47:17;;;;;;;10.05;5.30;;;614.40;1510.40;;;;;;5095975;28;20400;-76
2021/08/08 01:49:44;;;;;;;11.73;4.90;;;614.40;1510.40;;;;;;5094619;28;20507;-76
2021/08/08 01:52:11;;;;;;;7.53;4.90;;;614.40;1510.40;;;;;;5095889;28;20028;-76
2021/08/08 01:54:38;;;;;;;8.50;5.15;;;614.40;1536.00;;;;;;5095854;28;20036;-76
2021/08/08 01:57:07;;;;;;;9.32;4.68;;;614.40;1536.00;;;;;;5096002;28;20476;-76
2021/08/08 01:59:33;;;;;;;8.02;4.82;;;;;;;;;;5095713;28;20038;-76
2021/08/08 02:02:13;;;;;;;8.10;5.35;;;;;;;;;;5093900;28;20024;-76
2021/08/08 02:04:40;;;;;;;6.65;4.85;;;;;;;;;;5095623;28;20042;-76
2021/08/08 02:07:11;;;;;;;7.85;4.55;;;;;;;;;;5094328;28;20025;-75
2021/08/08 02:09:37;;;;;;;8.70;4.35;;;;;;;;;;5094294;28;20059;-75
2021/08/08 02:12:04;;;;;;;12.00;4.90;;;;;;;;;;5094210;28;20476;-75
2021/08/08 02:14:30;;;;;;;9.10;5.50;;;;;;;;;;5095413;28;20036;-76
2021/08/08 02:16:56;;;;;;;6.50;4.93;;;614.40;1510.40;;;;;;5095340;28;20073;-77
2021/08/08 02:19:22;;;;;;;10.60;5.03;;;589.60;1536.00;;;;;;5095353;28;20024;-74
2021/08/08 02:21:48;;;;;;;7.30;4.35;;;589.60;1536.00;;;;;;5095280;28;20020;-75
2021/08/08 02:24:14;;;;;;;10.52;5.10;;;589.60;1536.00;;;;;;5095155;28;20111;-77
2021/08/08 02:26:40;;;;;;;9.82;5.18;;;589.60;1536.00;;;;;;5095403;28;20552;-76
2021/08/08 02:29:06;;;;;;;8.88;4.80;;;589.60;1561.60;;;;;;5095181;28;20027;-76
2021/08/08 02:31:40;;;;;;;7.22;5.25;;;589.60;1561.60;;;;;;5095084;28;20075;-76
2021/08/08 02:34:07;;;;;;;9.57;4.68;;;589.50;1561.60;;;;;;5093795;28;20381;-76
2021/08/08 02:36:33;;;;;;;6.55;4.50;;;589.40;1561.60;;;;;;5094965;28;20028;-76
2021/08/08 02:39:00;;;;;;;8.25;5.00;;;589.50;1561.60;;;;;;5093614;28;20492;-75
2021/08/08 02:41:26;;;;;;;8.07;4.82;;;589.40;1561.60;;;;;;5094911;28;20024;-75
2021/08/08 02:43:54;;;;;;;8.20;5.05;;;589.40;1561.60;;;;;;5094812;28;20097;-74
2021/08/08 02:46:20;;;;;;;8.68;5.13;;;589.40;1587.20;;;;;;5094793;28;20357;-75
2021/08/08 02:48:46;;;;;;;9.45;5.75;;;589.40;1587.20;;;;;;5094857;28;20030;-76
2021/08/08 02:51:12;;;;;;;8.35;5.32;;;589.40;1587.20;;;;;;5093353;28;20115;-76
2021/08/08 02:53:38;;;;;;;8.60;4.75;;;589.30;1587.20;;;;;;5094680;28;20024;-76
2021/08/08 02:56:04;;;;;;;12.35;5.10;;;589.30;1587.20;;;;;;5094624;28;20073;-76
2021/08/08 02:58:30;;;;;;;8.30;5.07;;;589.30;1587.20;;;;;;5093333;28;20028;-76
2021/08/08 03:00:56;;;;;;;10.73;5.40;;;589.30;1587.20;;;;;;5094650;28;20518;-76
2021/08/08 03:03:21;;;;;;;7.47;5.43;;;589.30;1587.20;;;;;;5092973;28;20059;-76
2021/08/08 03:05:47;;;;;;;9.07;5.78;;;589.30;1587.20;;;;;;5094530;28;20054;-77
2021/08/08 03:08:13;;;;;;;9.15;4.85;;;589.30;1587.20;;;;;;5094481;28;20066;-77
2021/08/08 03:10:39;;;;;;;9.93;5.32;;;589.30;1587.20;;;;;;5093100;28;20024;-76
2021/08/08 03:13:05;;;;;;;10.35;6.15;;;589.30;1587.20;;;;;;5093850;28;20511;-76
2021/08/08 03:15:31;;;;;;;12.57;5.93;;;589.30;1587.20;;;;;;5092965;28;20035;-77
2021/08/08 03:17:57;;;;;;;15.32;5.68;;;589.30;1587.20;;;;;;5094498;28;20020;-77
2021/08/08 03:20:23;;;;;;;8.68;6.13;;;589.30;1587.20;;;;;;5094205;28;20068;-77
2021/08/08 03:22:50;;;;;;;10.25;5.97;;;589.30;1587.20;;;;;;5092835;28;20140;-77
2021/08/08 03:25:16;;;;;;;10.55;5.10;;;589.30;1587.20;;;;;;5094122;28;20035;-75
2021/08/08 03:27:42;;;;;;;7.93;5.13;;;589.30;1587.20;;;;;;5092757;28;20414;-76
2021/08/08 03:30:09;;;;;;;9.65;5.72;;;589.30;1587.20;;;;;;5092777;28;20020;-75
2021/08/08 03:32:35;;;;;;;9.23;5.70;;;589.30;1587.20;;;;;;5092728;28;20028;-77
2021/08/08 03:35:02;;;;;;;11.15;5.57;;;589.30;1612.80;;;;;;5094011;28;20415;-76
2021/08/08 03:37:27;;;;;;;15.13;6.25;;;589.20;1612.80;;;;;;5093942;28;20069;-77
2021/08/08 03:39:53;;;;;;;12.55;6.45;;;589.20;1612.80;;;;;;5093842;28;20024;-76
2021/08/08 03:42:19;;;;;;;10.73;6.35;;;589.20;1612.80;;;;;;5093752;28;20071;-76
2021/08/08 03:44:45;;;;;;;12.50;6.70;;;589.10;1638.40;;;;;;5092630;28;20438;-77
2021/08/08 03:47:11;;;;;;;8.68;5.72;;;589.30;1638.40;;;;;;5093802;28;20095;-76
2021/08/08 03:49:37;;;;;;;11.18;6.25;;;589.30;1638.40;;;;;;5092508;28;20081;-77
2021/08/08 03:52:03;;;;;;;10.90;6.30;;;589.30;1638.40;;;;;;5094055;28;20400;-76
2021/08/08 03:54:30;;;;;;;11.02;6.22;;;589.30;1638.40;;;;;;5093685;28;20059;-76
2021/08/08 03:56:55;;;;;;;10.32;6.60;;;589.20;1638.40;;;;;;5093646;28;20021;-77
2021/08/08 03:59:21;;;;;;;9.18;6.40;;;589.10;1638.40;;;;;;5092400;28;20035;-77
2021/08/08 04:01:47;;;;;;;13.10;6.63;;;589.10;1638.40;;;;;;5092343;28;20107;-76
2021/08/08 04:04:13;;;;;;;12.82;7.00;;;589.10;1638.40;;;;;;5092130;28;20138;-76
2021/08/08 04:06:39;;;;;;;11.40;7.13;;;589.10;1638.40;;;;;;5092346;28;20024;-77
2021/08/08 04:09:05;;;;;;;22.80;7.38;;;589.10;1664.00;;;;;;5092322;28;20028;-77
2021/08/08 04:11:31;;;;;;;12.30;6.97;;;589.10;1638.40;;;;;;5092342;28;20429;-76
2021/08/08 04:13:56;;;;;;;10.35;7.00;;;589.10;1638.40;;;;;;5092238;28;20034;-76
2021/08/08 04:16:22;;;;;;;11.68;7.22;;;589.10;1664.00;;;;;;5092205;28;20024;-76
2021/08/08 04:18:48;;;;;;;14.95;7.25;;;589.00;1664.00;;;;;;5093473;28;20031;-76
2021/08/08 04:21:14;;;;;;;9.80;6.95;;;589.10;1664.00;;;;;;5092175;28;20027;-76
2021/08/08 04:23:40;;;;;;;12.50;7.50;;;589.10;1664.00;;;;;;5091794;28;20032;-76
2021/08/08 04:26:06;;;;;;;14.68;8.27;;;589.10;1664.00;;;;;;5097447;28;20089;-75
2021/08/08 04:28:39;;;;;;;11.52;7.38;;;589.00;1664.00;;;;;;5096173;28;20115;-76
2021/08/08 04:31:06;;;;;;;10.80;8.18;;;589.00;1689.60;;;;;;5097496;28;20069;-76
2021/08/08 04:33:33;;;;;;;13.43;7.68;;;589.00;1689.60;;;;;;5096062;28;20020;-76
2021/08/08 04:35:58;;;;;;;13.73;7.07;;;589.00;1664.00;;;;;;5096077;28;20475;-76
2021/08/08 04:38:24;;;;;;;13.95;8.48;;;589.10;1664.00;;;;;;5096011;28;20073;-76
2021/08/08 04:40:50;;;;;;;15.68;9.40;;;589.10;1664.00;;;;;;5097194;28;20440;-76
2021/08/08 04:43:16;;;;;;;12.02;7.88;;;589.20;1638.40;;;;;;5097064;28;20032;-76
2021/08/08 04:45:42;;;;;;;14.38;8.93;;;589.30;1664.00;;;;;;5095819;28;20048;-75
2021/08/08 04:48:08;;;;;;;13.25;8.50;;;589.30;1638.40;;;;;;5097042;28;20024;-76
2021/08/08 04:50:33;;;;;;;13.85;8.32;;;589.30;1638.40;;;;;;5096988;28;20017;-75
2021/08/08 04:52:59;;;;;;;15.98;8.95;;;589.30;1638.40;;;;;;5096999;28;20488;-76
2021/08/08 04:55:25;;;;;;;11.95;9.15;;;589.30;1638.40;;;;;;5096912;28;20182;-76
2021/08/08 04:57:51;;;;;;;13.85;9.32;;;589.30;1664.00;;;;;;5097166;28;20028;-76
2021/08/08 05:00:17;;;;;;;17.50;9.27;;;589.30;1664.00;;;;;;5096896;28;20385;-77
2021/08/08 05:02:48;;;;;;;13.55;8.77;;;589.30;1664.00;;;;;;5095279;28;20496;-77
2021/08/08 05:05:15;;;;;;;16.05;9.10;;;589.30;1664.00;;;;;;5095763;28;20032;-76
2021/08/08 05:07:42;;;;;;;12.70;8.68;;;589.40;1638.40;;;;;;5095414;28;20480;-76
2021/08/08 05:10:12;;;;;;;10.63;8.48;;;589.50;1638.40;;;;;;5095382;28;20046;-75
2021/08/08 05:12:39;;;;;;;13.00;8.38;;;589.40;1664.00;;;;;;5096583;28;20028;-75
2021/08/08 05:15:06;;;;;;;12.43;7.78;;;589.40;1638.40;;;;;;5095282;28;20027;-76
2021/08/08 05:17:32;;;;;;;16.65;8.38;;;589.40;1638.40;;;;;;5095297;28;20085;-76
2021/08/08 05:19:57;;;;;;;12.15;8.55;;;589.50;1638.40;;;;;;5096442;28;20027;-76
2021/08/08 05:22:23;;;;;;;14.52;7.95;;;589.60;1638.40;;;;;;5095126;28;20024;-76
2021/08/08 05:24:49;;;;;;;13.63;8.65;;;589.60;1638.40;;;;;;5095251;28;20028;-76
2021/08/08 05:27:15;;;;;;;15.32;7.90;;;589.60;1664.00;;;;;;5096328;28;20447;-76
2021/08/08 05:29:41;;;;;;;12.18;6.70;;;589.60;1664.00;;;;;;5096143;28;20067;-75
2021/08/08 05:32:07;;;;;;;10.73;6.95;;;589.70;1664.00;;;;;;5096309;28;20020;-76
2021/08/08 05:34:33;;;;;;;9.68;6.43;;;589.70;1638.40;;;;;;5094591;28;20041;-76
2021/08/08 05:36:59;;;;;;;10.65;6.90;;;589.70;1638.40;;;;;;5096068;28;20136;-75
2021/08/08 05:39:25;;;;;;;10.02;6.95;;;589.70;1638.40;;;;;;5096160;28;20031;-77
2021/08/08 05:41:51;;;;;;;10.43;6.60;;;614.40;1638.40;;;;;;5094832;28;20441;-77
2021/08/08 05:44:17;;;;;;;9.52;6.78;;;614.40;1638.40;;;;;;5094371;28;20063;-76
2021/08/08 05:46:43;;;;;;;9.25;6.40;;;614.50;1638.40;;;;;;5094207;28;20373;-76
2021/08/08 05:49:09;;;;;;;9.50;6.28;;;614.50;1638.40;;;;;;5094124;28;20031;-76
2021/08/08 05:51:42;;;;;;;12.15;6.30;;;614.50;1638.40;;;;;;5094114;28;20023;-76
2021/08/08 05:54:08;;;;;;;12.13;6.38;;;614.60;1638.40;;;;;;5095426;28;20031;-76
2021/08/08 05:56:34;;;;;;;11.50;5.65;;;614.60;1612.80;;;;;;5091384;28;20024;-77
2021/08/08 05:59:00;;;;;;;8.90;5.13;;;614.70;1638.40;;;;;;5094173;28;20024;-76
2021/08/08 06:01:26;;;;;;;13.63;5.88;;;614.70;1612.80;;;;;;5094322;28;20058;-75
2021/08/08 06:03:52;;;;;;;14.93;5.40;;;614.70;1612.80;;;;;;5095371;28;20048;-75
2021/08/08 06:06:18;;;;;;;17.48;6.57;;;614.80;1612.80;;;;;;5094325;28;20031;-73
2021/08/08 06:08:44;;;;;;;8.95;5.15;;;614.90;1638.40;;;;;;5095718;28;20051;-76
2021/08/08 06:11:09;;;;;;;63.17;8.32;;;614.90;1587.20;;;;;;5095363;28;20030;-74
2021/08/08 06:13:35;;;;;;;37.35;7.13;;;614.90;1587.20;;;;;;5095341;28;20024;-73
2021/08/08 06:16:01;;;;;;;40.78;6.97;;;615.00;1587.20;;;;;;5093975;28;20028;-76
2021/08/08 06:18:27;;;;;;;30.23;5.82;;;615.00;1587.20;;;;;;5094859;28;20030;-76
2021/08/08 06:20:53;;;;;;;31.50;5.90;;;615.10;1587.20;;;;;;5094749;28;20051;-74
2021/08/08 06:23:19;;;;;;;24.75;4.93;;;615.10;1587.20;;;;;;5094761;28;20036;-74
2021/08/08 06:25:45;;;;;;;12.90;4.70;;;615.30;1587.20;;;;;;5093799;28;20016;-73
2021/08/08 06:28:11;;;;;;;23.88;4.60;;;615.30;1536.00;;;;;;5094992;28;20016;-74
2021/08/08 06:30:36;;;;;;;17.58;4.72;;;640.00;1536.00;;;;;;5094467;28;20388;-75
2021/08/08 06:33:03;;;;;;;22.17;5.57;;;640.10;1510.40;;;;;;5094344;28;20046;-75
2021/08/08 06:35:29;;;;;;;18.80;4.90;;;640.20;1510.40;;;;;;5093224;28;20047;-75
2021/08/08 06:37:55;;;;;;;29.67;6.10;;;640.30;1510.40;;;;;;5092751;28;20436;-75
2021/08/08 06:40:20;;;;;;;16.33;3.60;;;640.50;1484.80;;;;;;5094624;28;20077;-74
2021/08/08 06:42:46;;;;;;;35.70;11.85;;;640.50;1459.20;;;;;;5093347;28;20476;-75
2021/08/08 06:45:12;;;;;;;34.10;6.75;;;640.60;1484.80;;;;;;5094790;28;20028;-75
2021/08/08 06:47:38;;;;;;;36.28;7.97;;;640.80;1459.20;;;;;;5093850;28;20024;-74
2021/08/08 06:50:04;;;;;;;28.05;8.88;;;640.80;1484.80;;;;;;5093344;28;20024;-75
2021/08/08 06:52:30;;;;;;;18.60;6.70;;;665.60;1510.40;;;;;;5093192;28;20051;-75
2021/08/08 06:54:56;;;;;;;20.30;7.90;;;665.70;1536.00;;;;;;5094420;28;20024;-75
2021/08/08 06:57:26;;;;;;;16.90;6.47;;;666.00;1536.00;;;;;;5092358;28;20024;-75
2021/08/08 06:59:52;;;;;;;21.27;7.38;;;665.90;1561.60;;;;;;5092544;28;20028;-75
2021/08/08 07:02:19;;;;;;;21.15;7.18;;;666.00;1561.60;;;;;;5091369;28;20050;-76
2021/08/08 07:04:45;;;;;;;19.35;7.22;;;666.00;1561.60;;;;;;5094013;28;20050;-75
2021/08/08 07:07:11;;;;;;;16.02;7.10;;;666.30;1536.00;;;;;;5093546;28;20469;-75
2021/08/08 07:09:37;;;;;;;17.48;6.47;;;666.10;1536.00;;;;;;5094208;28;20426;-76
2021/08/08 07:12:03;;;;;;;15.05;6.40;;;666.20;1536.00;;;;;;5094316;28;20499;-74
2021/08/08 07:14:33;;;;;;;15.35;6.05;;;666.20;1536.00;;;;;;5094221;28;20020;-74
2021/08/08 07:16:59;;;;;;;15.23;6.47;;;666.30;1510.40;;;;;;5094123;28;20439;-73
2021/08/08 07:19:25;;;;;;;15.70;6.05;;;666.30;1510.40;;;;;;5092783;28;20021;-75
2021/08/08 07:21:52;;;;;;;12.93;5.70;;;666.30;1536.00;;;;;;5093653;28;20103;-74
2021/08/08 07:24:19;;;;;;;13.95;4.95;;;666.40;1510.40;;;;;;5092669;28;20041;-74
2021/08/08 07:26:44;;;;;;;15.57;5.50;;;666.40;1510.40;;;;;;5093924;28;20024;-76
2021/08/08 07:29:10;;;;;;;16.38;5.45;;;666.40;1510.40;;;;;;5093955;28;20024;-75
2021/08/08 07:31:36;;;;;;;12.20;4.97;;;666.40;1510.40;;;;;;5093977;28;20020;-75
2021/08/08 07:34:02;;;;;;;12.73;5.28;;;666.40;1510.40;;;;;;5092604;28;20032;-74
2021/08/08 07:36:28;;;;;;;11.52;4.90;;;666.50;1510.40;;;;;;5093921;28;20472;-76
2021/08/08 07:38:54;;;;;;;10.63;4.68;;;666.50;1510.40;;;;;;5093837;28;20032;-75
2021/08/08 07:41:20;;;;;;;9.75;4.88;;;666.50;1510.40;;;;;;5093776;28;20020;-74
2021/08/08 07:43:46;;;;;;;8.70;4.72;;;666.50;1510.40;;;;;;5093688;28;20392;-74
2021/08/08 07:46:12;;;;;;;10.68;5.05;;;666.50;1510.40;;;;;;5093752;28;20059;-75
2021/08/08 07:48:37;;;;;;;12.68;5.25;;;691.20;1510.40;;;;;;5092352;28;20020;-77
2021/08/08 07:51:03;;;;;;;13.50;5.18;;;691.20;1510.40;;;;;;5093709;28;20021;-75
2021/08/08 07:53:29;;;;;;;10.85;5.10;;;691.20;1510.40;;;;;;5093607;28;20032;-76
2021/08/08 07:55:55;;;;;;;10.50;4.72;;;691.20;1510.40;;;;;;5092306;28;20026;-75
2021/08/08 07:58:24;;;;;;;14.95;4.82;;;691.20;1510.40;;;;;;5092608;28;20081;-76
2021/08/08 08:00:51;;;;;;;10.70;4.82;;;691.20;1536.00;;;;;;5092966;28;20036;-76
2021/08/08 08:03:17;;;;;;;15.60;5.00;;;691.20;1536.00;;;;;;5090884;28;20475;-75
2021/08/08 08:05:42;;;;;;;19.80;5.05;;;691.20;1510.40;;;;;;5092126;28;20505;-75
2021/08/08 08:08:09;;;;;;;17.35;5.30;;;691.20;1510.40;;;;;;5092063;28;20052;-75
2021/08/08 08:10:35;;;;;;;18.48;4.88;;;691.20;1536.00;;;;;;5090716;28;20373;-74
2021/08/08 08:13:02;;;;;;;19.80;4.88;;;691.20;1536.00;;;;;;5092060;28;20129;-74
2021/08/08 08:15:28;;;;;;;18.50;5.13;;;691.20;1536.00;;;;;;5090747;28;20119;-74
2021/08/08 08:17:55;;;;;;;11.50;4.68;;;691.20;1536.00;;;;;;5091864;28;20099;-74
2021/08/08 08:20:21;;;;;;;13.10;4.88;;;691.20;1510.40;;;;;;5091874;28;20416;-74
2021/08/08 08:22:48;;;;;;;13.10;4.20;;;691.20;1510.40;;;;;;5090622;28;20096;-75
2021/08/08 08:25:14;;;;;;;11.70;4.65;;;691.20;1510.40;;;;;;5091914;28;20468;-74
2021/08/08 08:27:41;;;;;;;16.15;4.20;;;691.30;1510.40;;;;;;5091922;28;20024;-75
2021/08/08 08:30:08;;;;;;;14.52;4.40;;;691.20;1510.40;;;;;;5090714;28;20031;-74
2021/08/08 08:32:34;;;;;;;13.50;4.57;;;691.20;1536.00;;;;;;5091877;28;20102;-73
2021/08/08 08:35:03;;;;;;;11.07;4.43;;;691.20;1510.40;;;;;;5088021;28;20277;-73
2021/08/08 08:37:33;;;;;;;19.75;4.78;;;691.30;1536.00;;;;;;5090772;28;20441;-75
2021/08/08 08:40:00;;;;;;;7.15;4.28;;;691.20;1510.40;;;;;;5090382;28;20024;-75
2021/08/08 08:42:28;;;;;;;7.45;4.32;;;691.30;1536.00;;;;;;5090602;28;20102;-75
2021/08/08 08:44:55;;;;;;;9.80;4.40;;;691.30;1510.40;;;;;;5090510;28;20500;-75
2021/08/08 08:47:22;;;;;;;9.00;4.10;;;691.30;1510.40;;;;;;5089081;28;20642;-74
2021/08/08 08:49:54;;;;;;;7.50;4.30;;;691.30;1510.40;;;;;;5090303;28;20016;-74
2021/08/08 08:52:23;;;;;;;11.10;4.53;;;691.30;1536.00;;;;;;5089338;28;20028;-74
2021/08/08 08:54:49;;;;;;;9.40;4.03;;;691.30;1536.00;;;;;;5090332;28;20020;-76
2021/08/08 08:57:16;;;;;;;7.15;3.75;;;691.60;1510.40;;;;;;5090533;28;20016;-75
2021/08/08 08:59:43;;;;;;;10.10;4.35;;;691.50;1510.40;;;;;;5090445;28;20016;-76
2021/08/08 09:02:08;;;;;;;7.43;3.70;;;691.50;1510.40;;;;;;5090193;28;20005;-76
2021/08/08 09:04:35;;;;;;;6.53;3.67;;;691.50;1484.80;;;;;;5090529;28;20024;-74
2021/08/08 09:07:02;;;;;;;8.02;3.47;;;691.50;1510.40;;;;;;5090131;28;20016;-75
2021/08/08 09:09:30;;;;;;;9.90;4.22;;;691.50;1510.40;;;;;;5091314;28;20021;-74
2021/08/08 09:11:55;;;;;;;20.42;4.88;;;691.50;1510.40;;;;;;5092560;28;20020;-74
2021/08/08 09:14:22;;;;;;;17.73;4.57;;;691.50;1510.40;;;;;;5094054;28;20020;-72
2021/08/08 09:16:55;;;;;;;14.05;5.10;;;691.60;1536.00;;;;;;5093663;28;20522;-76
2021/08/08 09:19:22;;;;;;;;;;;691.70;1536.00;;;;;;5095072;28;20048;-74
2021/08/08 09:21:49;;;;;;;12.70;4.05;;;691.70;1536.00;;;;;;5093907;28;19904;-77
2021/08/08 09:24:41;;;;;;;14.20;4.63;;;691.60;1536.00;;;;;;5092519;28;20024;-75
2021/08/08 09:27:08;;;;;;;18.30;4.57;;;691.60;1536.00;;;;;;5067787;28;20032;-75
2021/08/08 09:29:40;;;;;;;6.60;4.10;;;691.60;1536.00;;;;;;5092592;28;20506;-74
2021/08/08 09:32:06;;;;;;;18.08;4.18;;;691.60;1536.00;;;;;;5091386;28;20012;-73
2021/08/08 09:34:38;;;;;;;13.80;3.83;;;691.60;1510.40;;;;;;5093441;28;20012;-74
2021/08/08 09:37:22;;;;;;;9.55;3.55;;;691.60;1510.40;;;;;;5089556;28;20024;-74
2021/08/08 09:39:53;;;;;;;12.65;3.30;;;691.60;1510.40;;;;;;5091274;28;20012;-77
2021/08/08 09:42:23;;;;;;;12.23;3.80;;;691.60;1510.40;;;;;;5092312;28;20032;-75
2021/08/08 09:45:00;;;;;;;9.07;3.38;;;691.60;1510.40;;;;;;5091931;28;20437;-75
2021/08/08 09:47:37;;;;;;;9.20;3.17;;;691.60;1510.40;;;;;;5091001;28;20013;-76
2021/08/08 09:50:06;;;;;;;10.25;3.35;;;691.60;1510.40;;;;;;5091739;28;20430;-74
2021/08/08 09:52:33;;;;;;;4.90;2.78;;;691.60;1510.40;;;;;;5093640;28;20024;-74
2021/08/08 09:55:00;;;;;;;18.23;3.28;;;691.60;1510.40;;;;;;5092946;28;20016;-75
2021/08/08 09:57:36;;;;;;;10.25;3.72;;;691.70;1510.40;;;;;;5091871;28;20388;-76
2021/08/08 10:00:02;;;;;;;14.07;3.60;;;691.70;1510.40;;;;;;5093201;28;20016;-74
2021/08/08 10:02:28;;;;;;;9.07;3.03;;;691.70;1510.40;;;;;;5092852;28;20040;-75
2021/08/08 10:04:53;;;;;;;4.78;3.05;;;691.70;1484.80;;;;;;5093833;28;20111;-75
2021/08/08 10:07:20;;;;;;;5.85;2.80;;;691.70;1510.40;;;;;;5093966;28;20024;-77
2021/08/08 10:09:49;;;;;;;8.10;3.10;;;691.80;1510.40;;;;;;5093751;28;20036;-74
2021/08/08 10:12:39;;;;;;;14.43;3.20;;;691.80;1510.40;;;;;;5094945;28;20023;-76
2021/08/08 10:15:05;;;;;;;7.60;3.03;;;691.80;1510.40;;;;;;5089917;28;20028;-74
2021/08/08 10:17:34;;;;;;;9.57;3.10;;;692.00;1510.40;;;;;;5093299;28;20016;-74
2021/08/08 10:20:02;;;;;;;7.38;3.45;;;692.00;1484.80;;;;;;5093327;28;20552;-75
2021/08/08 10:22:31;;;;;;;7.80;3.25;;;692.00;1484.80;;;;;;5093429;28;20024;-76
2021/08/08 10:24:57;;;;;;;10.50;3.35;;;692.00;1484.80;;;;;;5093387;28;20085;-74
2021/08/08 10:27:24;;;;;;;12.98;3.90;;;692.00;1484.80;;;;;;5093932;28;20016;-75
2021/08/08 10:29:51;;;;;;;22.10;4.32;;;692.00;1484.80;;;;;;5093610;28;20026;-75
2021/08/08 10:32:18;;;;;;;14.27;3.63;;;692.00;1484.80;;;;;;5093618;28;20031;-74
2021/08/08 10:34:44;;;;;;;18.58;3.92;;;716.90;1459.20;;;;;;5091529;28;20036;-75
2021/08/08 10:37:14;;;;;;;16.05;3.80;;;716.80;1510.40;;;;;;5092485;28;20020;-75
2021/08/08 10:39:42;;;;;;;8.18;3.88;;;716.80;1510.40;;;;;;5093442;28;20093;-74
2021/08/08 10:42:08;;;;;;;26.25;4.10;;;692.10;1484.80;;;;;;5093650;28;20020;-74
2021/08/08 10:44:54;;;;;;;14.02;4.10;;;692.10;1484.80;;;;;;5093153;28;20059;-76
2021/08/08 10:47:25;;;;;;;9.23;3.13;;;692.00;1484.80;;;;;;5093537;28;20534;-75
2021/08/08 10:49:51;;;;;;;17.48;3.58;;;717.00;1510.40;;;;;;5093568;28;20032;-74
2021/08/08 10:52:17;;;;;;;15.13;3.75;;;692.00;1484.80;;;;;;5093525;28;20396;-76
2021/08/08 10:54:52;;;;;;;25.75;4.80;;;692.00;1510.40;;;;;;5092811;28;20105;-73
2021/08/08 10:57:19;;;;;;;43.63;6.15;;;692.00;1510.40;;;;;;5091831;28;20030;-77
2021/08/08 10:59:47;;;;;;;20.05;4.25;;;692.00;1510.40;;;;;;5093317;28;20437;-76
2021/08/08 11:02:27;;;;;;;25.88;4.63;;;692.00;1484.80;;;;;;5092508;28;20042;-76
2021/08/08 11:04:53;;;;;;;15.60;4.18;;;716.80;1510.40;;;;;;5092934;28;20032;-74
2021/08/08 11:07:26;;;;;;;17.52;3.88;;;716.80;1510.40;;;;;;5093166;28;20062;-78
2021/08/08 11:09:52;;;;;;;14.02;3.80;;;716.80;1510.40;;;;;;5092166;28;20028;-78
2021/08/08 11:12:40;;;;;;;16.77;3.88;;;716.80;1510.40;;;;;;5092513;28;20046;-77
2021/08/08 11:15:08;;;;;;;10.45;3.45;;;716.80;1510.40;;;;;;5092772;28;20498;-78
2021/08/08 11:17:34;;;;;;;14.38;4.32;;;716.80;1510.40;;;;;;5092710;28;20221;-79
2021/08/08 11:20:00;;;;;;;9.35;3.20;;;716.80;1510.40;;;;;;5091854;28;20514;-77
2021/08/08 11:22:27;;;;;;;5.55;3.33;;;716.80;1510.40;;;;;;5091708;28;20396;-78
2021/08/08 11:25:02;;;;;;;8.88;3.78;;;716.90;1484.80;;;;;;5091555;28;20027;-77
2021/08/08 11:27:40;;;;;;;10.18;4.38;;;716.90;1484.80;;;;;;5088483;28;20020;-78
2021/08/08 11:30:16;;;;;;;8.25;3.55;;;716.80;1484.80;;;;;;5092356;28;20135;-78
2021/08/08 11:32:42;;;;;;;5.50;2.97;;;716.80;1510.40;;;;;;5091972;28;20047;-76
2021/08/08 11:35:11;;;;;;;7.50;3.20;;;716.80;1484.80;;;;;;5092407;28;20028;-76
2021/08/08 11:37:40;;;;;;;6.47;3.40;;;716.80;1484.80;;;;;;5092860;28;20024;-76
2021/08/08 11:40:24;;;;;;;6.05;3.67;;;716.90;1484.80;;;;;;5092446;28;20098;-75
2021/08/08 11:43:05;;;;;;;9.65;3.45;;;717.00;1484.80;;;;;;5092577;28;20019;-77
2021/08/08 11:45:37;;;;;;;11.75;2.97;;;717.00;1484.80;;;;;;5092205;28;20034;-77
2021/08/08 11:48:04;;;;;;;5.65;3.17;;;716.90;1484.80;;;;;;5092310;28;20020;-77
2021/08/08 11:50:31;;;;;;;5.05;3.20;;;716.90;1484.80;;;;;;5092280;28;20063;-76
2021/08/08 11:52:58;;;;;;;5.65;3.33;;;716.90;1484.80;;;;;;5090878;28;20452;-77
2021/08/08 11:55:24;;;;;;;5.47;3.20;;;717.00;1484.80;;;;;;5090934;28;20059;-77
2021/08/08 11:57:50;;;;;;;6.57;2.75;;;717.30;1459.20;;;;;;5091995;28;20111;-77
2021/08/08 12:00:17;;;;;;;5.13;2.90;;;717.10;1459.20;;;;;;5090936;28;20074;-77
2021/08/08 12:02:46;;;;;;;4.40;3.13;;;717.10;1459.20;;;;;;5091563;28;20040;-76
2021/08/08 12:05:13;;;;;;;5.82;3.08;;;717.20;1459.20;;;;;;5092395;28;20024;-75
2021/08/08 12:07:41;;;;;;;6.47;2.97;;;717.20;1459.20;;;;;;5091983;28;20031;-75
2021/08/08 12:10:07;;;;;;;5.85;3.40;;;717.30;1433.60;;;;;;5092262;28;20020;-76
2021/08/08 12:12:35;;;;;;;7.15;2.80;;;717.20;1459.20;;;;;;5090707;28;20474;-76
2021/08/08 12:15:02;;;;;;;41.00;3.42;;;717.40;1433.60;;;;;;5092085;28;20035;-77
2021/08/08 12:17:28;;;;;;;26.73;3.28;;;717.30;1433.60;;;;;;5091099;28;20028;-75